Belevo, Russia
Current Conditions -  °F | °C
As of 10:30 PM on Friday 24 Oct 2014 (Local Time) from UNEE Reporting Station
Moderate Fog Moderate Fog  
Wind Chill: 26°   Ceiling: 300
Heat Index: 32°   Visibility: 0.43mi
Dew Point: 32°   Wind: 7mph
Humidity: 100%   Direction: 140°SE
Pressure: 29.91"   Gusts: NA
Location:  54.42°N, 86.3°E
Report Text: UNEE 241530Z 14003MPS 0700 R23/P1500 FG VV003 00/00 Q1013 TEMPO0500 FG BKN003 RMK QBB110 QFE737 23290055
Loading
Personal Weather Stations






























Interactive Weather Map
Tropical Storm Tracking
New forecast layout! Learn more

10-Day Weather Forecast

Advertisements
Track Severe Weather on mobile